Time;durP1;ratioP1;P1;durP2;ratioP2;P2;SDS_P1;SDS_P2;PMS_P1;PMS_P2;Temp;Humidity;BMP_temperature;BMP_pressure;BME280_temperature;BME280_humidity;BME280_pressure;Samples;Min_cycle;Max_cycle;Signal;HPM_P1;HPM_P2
2021/12/05 00:22:21;;;;;;;13.67;2.67;;;3.90;99.90;;;;;;5040715;28;20686;-48
2021/12/05 00:24:50;;;;;;;14.97;2.23;;;3.90;99.90;;;;;;5053678;28;20564;-49
2021/12/05 00:27:25;;;;;;;7.83;2.70;;;3.80;99.90;;;;;;5053185;28;20175;-48
2021/12/05 00:30:07;;;;;;;12.00;2.20;;;3.80;99.90;;;;;;5053081;28;20246;-47
2021/12/05 00:38:03;;;;;;;7.77;1.93;;;3.70;99.90;;;;;;5053185;28;20184;-47
2021/12/05 00:59:41;;;;;;;10.77;2.53;;;3.60;99.90;;;;;;5056424;28;20592;-46
2021/12/05 01:02:30;;;;;;;6.93;2.20;;;3.60;99.90;;;;;;5055797;28;20215;-47
2021/12/05 01:13:13;;;;;;;8.30;2.00;;;3.60;99.90;;;;;;5056368;28;20206;-47
2021/12/05 01:15:32;;;;;;;13.40;2.07;;;3.70;99.90;;;;;;5055802;28;20231;-47
2021/12/05 01:18:04;;;;;;;12.87;2.13;;;3.70;99.90;;;;;;5056343;28;20210;-46
2021/12/05 01:20:35;;;;;;;14.40;2.60;;;3.70;99.90;;;;;;5056494;28;20156;-44
2021/12/05 01:23:06;;;;;;;11.77;2.40;;;3.70;99.90;;;;;;5056139;28;20591;-45
2021/12/05 01:25:44;;;;;;;7.20;2.30;;;3.70;99.90;;;;;;5055658;28;20659;-44
2021/12/05 01:31:09;;;;;;;7.13;1.97;;;3.70;99.90;;;;;;5055958;28;20217;-45
2021/12/05 01:34:46;;;;;;;11.73;2.33;;;3.70;99.90;;;;;;5055681;28;20171;-44
2021/12/05 01:36:37;;;;;;;9.93;2.07;;;3.70;99.90;;;;;;5038065;28;20191;-45
2021/12/05 01:44:49;;;;;;;14.07;2.20;;;3.60;99.90;;;;;;5055789;28;20214;-47
2021/12/05 01:47:28;;;;;;;13.37;2.93;;;3.60;99.90;;;;;;5054502;28;20282;-45
2021/12/05 02:08:36;;;;;;;9.17;2.53;;;3.50;99.90;;;;;;5055528;28;20632;-45
2021/12/05 02:32:42;;;;;;;6.97;1.73;;;3.40;99.90;;;;;;5055680;28;20238;-45
2021/12/05 02:40:35;;;;;;;5.43;1.80;;;3.30;99.90;;;;;;5056294;28;20414;-44
2021/12/05 02:43:09;;;;;;;5.43;1.77;;;3.30;99.90;;;;;;5055419;28;20609;-45
2021/12/05 02:45:39;;;;;;;9.53;2.13;;;3.30;99.90;;;;;;5055447;28;20618;-42
2021/12/05 02:48:06;;;;;;;9.90;2.10;;;3.30;99.90;;;;;;5054596;28;20187;-44
2021/12/05 02:50:32;;;;;;;10.23;2.00;;;3.30;99.90;;;;;;5054945;28;20188;-43
2021/12/05 02:53:08;;;;;;;6.70;2.17;;;3.30;99.90;;;;;;5036176;28;20307;-42
2021/12/05 02:55:39;;;;;;;4.73;1.53;;;3.30;99.90;;;;;;5054174;28;20599;-45
2021/12/05 02:58:33;;;;;;;3.87;1.80;;;3.20;99.90;;;;;;5054435;28;20167;-44
2021/12/05 03:03:31;;;;;;;8.40;2.40;;;3.10;99.90;;;;;;5054316;28;20665;-43
2021/12/05 03:06:06;;;;;;;11.17;1.90;;;3.10;99.90;;;;;;5053333;28;20192;-43
2021/12/05 03:08:32;;;;;;;10.17;1.50;;;3.10;99.90;;;;;;5054253;28;20174;-43
2021/12/05 03:11:00;;;;;;;6.33;1.70;;;3.10;99.90;;;;;;5053870;28;20200;-44
2021/12/05 03:13:26;;;;;;;9.47;2.00;;;3.00;99.90;;;;;;5054065;28;20187;-44
2021/12/05 03:15:55;;;;;;;4.80;1.30;;;3.00;99.90;;;;;;5053716;28;20559;-44
2021/12/05 03:18:21;;;;;;;12.13;1.90;;;3.00;99.90;;;;;;5053744;28;20182;-44
2021/12/05 03:20:47;;;;;;;3.23;1.30;;;3.00;99.90;;;;;;5053954;28;20180;-45
2021/12/05 03:23:12;;;;;;;4.90;1.57;;;2.90;99.90;;;;;;5053748;28;20177;-44
2021/12/05 03:25:38;;;;;;;10.00;2.03;;;2.90;99.90;;;;;;5053777;28;20212;-44
2021/12/05 03:28:05;;;;;;;4.03;1.30;;;2.90;99.90;;;;;;5053534;28;20180;-46
2021/12/05 03:30:31;;;;;;;4.97;1.93;;;2.80;99.90;;;;;;5035689;28;20191;-45
2021/12/05 03:32:57;;;;;;;10.77;1.83;;;2.80;99.90;;;;;;5053637;28;20210;-44
2021/12/05 03:35:27;;;;;;;8.00;1.40;;;2.80;99.90;;;;;;5053474;28;20218;-45
2021/12/05 03:37:53;;;;;;;5.53;1.50;;;2.70;99.90;;;;;;5053842;28;20598;-44
2021/12/05 03:40:22;;;;;;;4.50;1.30;;;2.70;99.90;;;;;;5053509;28;20175;-45
2021/12/05 03:42:49;;;;;;;3.63;1.27;;;2.70;99.90;;;;;;5053377;28;20199;-44
2021/12/05 03:45:20;;;;;;;6.67;1.27;;;2.70;99.90;;;;;;5053433;28;20241;-44
2021/12/05 03:47:46;;;;;;;2.97;1.33;;;2.60;99.90;;;;;;5053499;28;20165;-44
2021/12/05 03:50:12;;;;;;;5.73;1.33;;;2.60;99.90;;;;;;5036128;28;20586;-48
2021/12/05 03:52:39;;;;;;;4.33;1.50;;;2.60;99.90;;;;;;5053214;28;20203;-47
2021/12/05 03:55:07;;;;;;;5.13;1.20;;;2.60;99.90;;;;;;5053537;28;20680;-48
2021/12/05 03:57:33;;;;;;;3.67;1.10;;;2.60;99.90;;;;;;5053231;28;20187;-46
2021/12/05 03:59:58;;;;;;;3.03;0.97;;;2.60;99.90;;;;;;5053067;28;20266;-46
2021/12/05 04:02:24;;;;;;;6.03;1.30;;;2.60;99.90;;;;;;5053075;28;20237;-47
2021/12/05 04:04:51;;;;;;;2.60;1.37;;;2.60;99.90;;;;;;5053413;28;20184;-48
2021/12/05 04:07:17;;;;;;;5.80;1.30;;;2.60;99.90;;;;;;5053248;28;20215;-48
2021/12/05 04:09:44;;;;;;;7.50;1.53;;;2.60;99.90;;;;;;5053365;28;20196;-46
2021/12/05 04:12:10;;;;;;;2.50;1.03;;;2.60;99.90;;;;;;5053045;28;20432;-47
2021/12/05 04:14:41;;;;;;;4.83;1.67;;;2.50;99.90;;;;;;5052988;28;21078;-48
2021/12/05 04:17:10;;;;;;;6.87;1.80;;;2.50;99.90;;;;;;5055731;28;20401;-48
2021/12/05 04:19:38;;;;;;;5.73;1.37;;;2.50;99.90;;;;;;5057260;28;20447;-49
2021/12/05 04:22:05;;;;;;;2.33;1.00;;;2.40;99.90;;;;;;5056868;28;20821;-47
2021/12/05 04:24:32;;;;;;;5.80;1.90;;;2.40;99.90;;;;;;5056928;28;20422;-49
2021/12/05 04:26:58;;;;;;;3.23;1.07;;;2.40;99.90;;;;;;5057076;28;20424;-47
2021/12/05 04:29:23;;;;;;;3.50;1.67;;;2.30;99.90;;;;;;5057127;28;20260;-48
2021/12/05 04:31:49;;;;;;;5.23;0.97;;;2.30;99.90;;;;;;5056893;28;20741;-48
2021/12/05 04:34:15;;;;;;;2.93;1.30;;;2.30;99.90;;;;;;5056915;28;20339;-48
2021/12/05 04:36:42;;;;;;;4.10;1.23;;;2.30;99.90;;;;;;5056895;28;20254;-48
2021/12/05 04:39:09;;;;;;;6.33;1.50;;;2.30;99.90;;;;;;5056718;28;20415;-47
2021/12/05 04:41:37;;;;;;;2.13;1.03;;;2.30;99.90;;;;;;5056837;28;20563;-49
2021/12/05 04:44:03;;;;;;;8.13;1.20;;;2.20;99.90;;;;;;5056831;28;20551;-46
2021/12/05 04:46:29;;;;;;;3.50;1.27;;;2.20;99.90;;;;;;5056624;28;20273;-46
2021/12/05 04:48:56;;;;;;;3.57;0.87;;;2.30;99.90;;;;;;5056707;28;20235;-47
2021/12/05 04:51:32;;;;;;;5.17;1.27;;;2.30;99.90;;;;;;5056623;28;20448;-48
2021/12/05 04:53:58;;;;;;;4.90;1.60;;;2.30;99.90;;;;;;5056486;28;20544;-45
2021/12/05 04:56:25;;;;;;;4.27;1.13;;;2.30;99.90;;;;;;5056633;28;20270;-48
2021/12/05 04:58:53;;;;;;;4.00;1.00;;;2.30;99.90;;;;;;5056921;28;20186;-48
2021/12/05 05:01:19;;;;;;;4.23;1.10;;;2.30;99.90;;;;;;5056317;28;20447;-48
2021/12/05 05:03:46;;;;;;;1.70;0.77;;;2.20;99.90;;;;;;5056552;28;20181;-46
2021/12/05 05:06:15;;;;;;;4.60;1.20;;;2.20;99.90;;;;;;5056528;28;20832;-47
2021/12/05 05:08:42;;;;;;;2.80;1.20;;;2.30;99.90;;;;;;5056487;28;20470;-46
2021/12/05 05:11:10;;;;;;;4.13;1.23;;;2.20;99.90;;;;;;5056112;28;20510;-48
2021/12/05 05:13:37;;;;;;;5.27;1.10;;;2.20;99.90;;;;;;5056048;28;20470;-48
2021/12/05 05:16:04;;;;;;;3.40;1.10;;;2.30;99.90;;;;;;5056082;28;20222;-47
2021/12/05 05:18:40;;;;;;;3.73;1.07;;;2.30;99.90;;;;;;5056413;28;20898;-47
2021/12/05 05:21:13;;;;;;;2.37;0.90;;;2.30;99.90;;;;;;5055976;28;20458;-48
2021/12/05 05:24:09;;;;;;;5.13;1.37;;;2.30;99.90;;;;;;5056096;28;20430;-46
2021/12/05 05:29:27;;;;;;;2.70;1.10;;;2.30;99.90;;;;;;5054857;28;20447;-47
2021/12/05 05:43:07;;;;;;;5.00;1.17;;;2.20;99.90;;;;;;5055731;28;20193;-47
2021/12/05 05:50:24;;;;;;;3.83;1.30;;;2.30;99.90;;;;;;5055342;28;20182;-47
2021/12/05 05:52:50;;;;;;;1.77;1.10;;;2.30;99.90;;;;;;5037225;28;20983;-48
2021/12/05 05:55:16;;;;;;;2.40;1.27;;;2.40;99.90;;;;;;5055424;28;20298;-47
2021/12/05 06:00:34;;;;;;;4.87;1.20;;;2.40;99.90;;;;;;5055544;28;20404;-47
2021/12/05 06:05:56;;;;;;;3.67;1.37;;;2.50;99.90;;;;;;5055428;28;20392;-47
2021/12/05 06:08:24;;;;;;;1.50;1.03;;;2.50;99.90;;;;;;5055056;28;20863;-46
2021/12/05 06:10:51;;;;;;;1.47;0.97;;;2.50;99.90;;;;;;5037218;28;20439;-47
2021/12/05 06:13:18;;;;;;;3.70;0.87;;;2.50;99.90;;;;;;5055043;28;20183;-48
2021/12/05 06:15:46;;;;;;;2.17;1.10;;;2.50;99.90;;;;;;5054940;28;20201;-47
2021/12/05 06:18:12;;;;;;;3.50;1.47;;;2.50;99.90;;;;;;5054837;28;20185;-48
2021/12/05 06:20:38;;;;;;;2.67;0.90;;;2.50;99.90;;;;;;5037029;28;20609;-47
2021/12/05 06:23:04;;;;;;;1.53;0.97;;;2.50;99.90;;;;;;5055227;28;20318;-47
2021/12/05 06:25:34;;;;;;;5.37;1.10;;;2.50;99.90;;;;;;5036857;28;20651;-47
2021/12/05 06:28:05;;;;;;;4.70;1.13;;;2.50;99.90;;;;;;5054947;28;20236;-49
2021/12/05 06:46:04;;;;;;;2.40;1.20;;;2.60;99.90;;;;;;5054805;28;20544;-49
2021/12/05 06:48:30;;;;;;;2.50;1.20;;;2.60;99.90;;;;;;5054606;28;20281;-47
2021/12/05 06:50:56;;;;;;;2.63;1.47;;;2.70;99.90;;;;;;5054677;28;20472;-46
2021/12/05 06:53:22;;;;;;;3.90;1.30;;;2.60;99.90;;;;;;5054819;28;20455;-47
2021/12/05 06:55:48;;;;;;;4.30;1.27;;;2.60;99.90;;;;;;5054486;28;20210;-48
2021/12/05 06:58:13;;;;;;;2.70;1.17;;;2.60;99.90;;;;;;5054527;28;20202;-47
2021/12/05 07:00:39;;;;;;;4.20;1.40;;;2.60;99.90;;;;;;5036111;28;20433;-47
2021/12/05 07:03:07;;;;;;;3.47;1.30;;;2.70;99.90;;;;;;5036061;28;20192;-47
2021/12/05 07:08:10;;;;;;;3.07;1.03;;;2.70;99.90;;;;;;5053960;28;20255;-48
2021/12/05 07:10:52;;;;;;;5.00;1.40;;;2.70;99.90;;;;;;5053615;28;20509;-46
2021/12/05 07:15:50;;;;;;;5.63;1.80;;;2.80;99.90;;;;;;5053943;28;20562;-47
2021/12/05 07:24:03;;;;;;;3.30;1.00;;;2.80;99.90;;;;;;5053688;28;20476;-45
2021/12/05 07:26:47;;;;;;;4.13;1.20;;;2.80;99.90;;;;;;5053777;28;20758;-47
2021/12/05 07:42:48;;;;;;;3.13;1.43;;;2.80;99.90;;;;;;5053621;28;20451;-44
2021/12/05 07:45:21;;;;;;;3.07;1.30;;;2.90;99.90;;;;;;5053329;28;20178;-44
2021/12/05 07:47:50;;;;;;;4.97;1.37;;;2.90;99.90;;;;;;5053515;28;20155;-45
2021/12/05 07:50:17;;;;;;;2.27;1.23;;;2.90;99.90;;;;;;5052783;28;20190;-44
2021/12/05 07:52:49;;;;;;;3.70;1.40;;;2.90;99.90;;;;;;5053152;28;20211;-45
2021/12/05 07:55:21;;;;;;;5.43;1.77;;;2.90;99.90;;;;;;5053398;28;20822;-45
2021/12/05 07:58:10;;;;;;;4.83;1.80;;;2.90;99.90;;;;;;5053323;28;20928;-44
2021/12/05 08:00:55;;;;;;;3.37;1.63;;;2.90;99.90;;;;;;5053298;28;20540;-45
2021/12/05 08:16:56;;;;;;;4.23;1.87;;;3.10;99.90;;;;;;5053239;28;20872;-44
2021/12/05 08:19:21;;;;;;;6.20;1.90;;;3.10;99.90;;;;;;5053282;28;20781;-45
2021/12/05 08:22:06;;;;;;;8.40;1.83;;;3.10;99.90;;;;;;5052958;28;20421;-44
2021/12/05 08:24:34;;;;;;;5.57;2.20;;;3.10;99.90;;;;;;5053021;28;20166;-44
2021/12/05 08:27:02;;;;;;;3.37;1.80;;;3.20;99.90;;;;;;5053120;28;20817;-44
2021/12/05 08:29:51;;;;;;;3.30;1.50;;;3.10;99.90;;;;;;5052800;28;20187;-44
2021/12/05 08:32:29;;;;;;;8.73;2.07;;;3.20;99.90;;;;;;5038568;28;20206;-43
2021/12/05 08:38:29;;;;;;;5.67;1.90;;;3.20;99.90;;;;;;5053064;28;20206;-45
2021/12/05 08:43:33;;;;;;;4.70;1.87;;;3.30;99.90;;;;;;5052719;28;20384;-44
2021/12/05 08:46:19;;;;;;;6.23;2.17;;;3.30;99.90;;;;;;5052658;28;20281;-45
2021/12/05 09:24:39;;;;;;;5.40;2.10;;;3.80;99.90;;;;;;5056165;28;20178;-43
2021/12/05 09:27:43;;;;;;;3.80;1.93;;;3.90;99.90;;;;;;5023578;28;20193;-44
2021/12/05 09:30:24;;;;;;;7.83;2.30;;;3.90;99.90;;;;;;5055517;28;20190;-43
2021/12/05 10:08:39;;;;;;;12.90;5.77;;;4.10;99.90;;;;;;5054419;28;20199;-44
2021/12/05 10:11:19;;;;;;;10.23;5.33;;;4.10;99.90;;;;;;5054749;28;20310;-45
2021/12/05 10:16:53;;;;;;;4.77;2.73;;;4.10;99.90;;;;;;5052170;28;20188;-43
2021/12/05 10:37:11;;;;;;;7.80;2.33;;;4.30;99.90;;;;;;5054245;28;20244;-43
2021/12/05 10:39:37;;;;;;;5.23;2.73;;;4.30;99.90;;;;;;5054244;28;20168;-45
2021/12/05 10:42:40;;;;;;;9.07;2.80;;;4.40;99.90;;;;;;5054073;28;20207;-45
2021/12/05 10:45:08;;;;;;;4.50;2.20;;;4.40;99.90;;;;;;5054538;28;20168;-44
2021/12/05 10:47:41;;;;;;;6.53;2.30;;;4.50;99.90;;;;;;5054029;28;20217;-45
2021/12/05 10:50:31;;;;;;;4.57;2.10;;;4.50;99.90;;;;;;5053735;28;20191;-43
2021/12/05 10:53:40;;;;;;;6.27;2.80;;;4.50;99.90;;;;;;5035921;28;20230;-44
2021/12/05 10:56:31;;;;;;;2.50;1.73;;;4.60;99.90;;;;;;4973318;28;20215;-44
2021/12/05 10:59:12;;;;;;;5.30;2.53;;;4.60;99.90;;;;;;4968889;28;20188;-45
2021/12/05 11:01:50;;;;;;;6.43;1.97;;;4.70;99.90;;;;;;5030563;28;20693;-43
2021/12/05 11:04:20;;;;;;;3.50;1.80;;;4.70;99.90;;;;;;5053754;28;20173;-43
2021/12/05 11:07:01;;;;;;;4.70;2.20;;;4.70;99.90;;;;;;5053249;28;20176;-45
2021/12/05 11:09:33;;;;;;;2.90;2.13;;;4.80;99.90;;;;;;5053756;28;20175;-44
2021/12/05 11:12:00;;;;;;;2.90;1.93;;;4.70;99.90;;;;;;5052778;28;20200;-44
2021/12/05 11:14:29;;;;;;;8.70;3.03;;;4.80;99.90;;;;;;5050859;28;20661;-43
2021/12/05 11:17:08;;;;;;;8.13;2.73;;;4.80;99.90;;;;;;5051458;28;20684;-43
2021/12/05 11:19:36;;;;;;;4.93;2.80;;;4.80;99.90;;;;;;5049485;28;20198;-45
2021/12/05 11:22:26;;;;;;;7.20;2.53;;;4.90;99.90;;;;;;5051283;28;20200;-44
2021/12/05 11:24:58;;;;;;;10.93;2.73;;;4.90;99.90;;;;;;5054358;28;20627;-48
2021/12/05 11:27:40;;;;;;;7.33;2.87;;;5.00;99.90;;;;;;5053359;28;20180;-47
2021/12/05 11:30:13;;;;;;;7.50;2.60;;;5.00;99.90;;;;;;5052839;28;20677;-48
2021/12/05 11:32:49;;;;;;;6.23;2.20;;;5.10;99.90;;;;;;5035681;28;20196;-46
2021/12/05 11:35:29;;;;;;;8.17;2.50;;;5.10;99.90;;;;;;5044029;28;20192;-47
2021/12/05 11:37:59;;;;;;;7.40;2.40;;;5.10;99.90;;;;;;5054674;28;20192;-46
2021/12/05 11:41:02;;;;;;;3.87;1.70;;;5.20;99.90;;;;;;5053596;28;20601;-47
2021/12/05 11:43:35;;;;;;;4.50;2.07;;;5.20;99.90;;;;;;5051497;28;20187;-47
2021/12/05 11:46:09;;;;;;;4.97;2.30;;;5.20;99.90;;;;;;5036228;28;20195;-47
2021/12/05 11:48:48;;;;;;;5.90;1.77;;;5.30;99.90;;;;;;5054551;28;20207;-46
2021/12/05 11:51:29;;;;;;;3.53;1.53;;;5.30;99.90;;;;;;5053873;28;20211;-49
2021/12/05 11:54:10;;;;;;;10.27;4.40;;;5.30;99.90;;;;;;5037124;28;20634;-47
2021/12/05 11:56:42;;;;;;;44.53;15.80;;;5.30;99.90;;;;;;5054574;28;20487;-47
2021/12/05 11:59:22;;;;;;;29.73;11.40;;;5.30;99.90;;;;;;5053937;28;20181;-49
2021/12/05 12:01:57;;;;;;;16.37;7.33;;;5.30;99.90;;;;;;5052639;28;20591;-47
2021/12/05 12:04:37;;;;;;;12.80;7.60;;;5.30;99.90;;;;;;5054097;28;20171;-48
2021/12/05 12:07:20;;;;;;;11.90;6.33;;;5.30;99.90;;;;;;5054032;28;20184;-47
2021/12/05 12:09:50;;;;;;;18.67;4.80;;;5.30;99.90;;;;;;5053488;28;20164;-47
2021/12/05 12:12:17;;;;;;;10.43;4.00;;;5.30;99.90;;;;;;5044805;28;20200;-46
2021/12/05 12:14:43;;;;;;;6.73;2.47;;;5.30;99.90;;;;;;5053148;28;20315;-46
2021/12/05 12:17:15;;;;;;;24.27;7.20;;;5.30;99.90;;;;;;5053422;28;20177;-46
2021/12/05 12:19:42;;;;;;;17.73;5.40;;;5.30;99.90;;;;;;5053496;28;20168;-47
2021/12/05 12:22:08;;;;;;;11.17;3.23;;;5.30;99.90;;;;;;5035172;28;20203;-46
2021/12/05 12:24:36;;;;;;;4.53;2.00;;;5.30;99.90;;;;;;5053260;28;20772;-46
2021/12/05 12:27:04;;;;;;;4.87;2.10;;;5.30;99.90;;;;;;5039302;28;20189;-47
2021/12/05 12:29:30;;;;;;;5.03;2.30;;;5.30;99.90;;;;;;5058679;28;20180;-48
2021/12/05 12:32:03;;;;;;;8.73;4.60;;;5.30;99.90;;;;;;5054627;28;20211;-47
2021/12/05 12:34:29;;;;;;;10.13;6.10;;;5.40;99.90;;;;;;5055339;28;20279;-47
2021/12/05 12:37:03;;;;;;;8.10;4.63;;;5.40;99.90;;;;;;5054141;28;20203;-45
2021/12/05 12:39:38;;;;;;;4.93;3.27;;;5.40;99.90;;;;;;5061097;28;20169;-46
2021/12/05 12:42:10;;;;;;;6.20;3.60;;;5.40;99.90;;;;;;5058042;28;20223;-46
2021/12/05 12:44:36;;;;;;;5.77;2.73;;;5.40;99.90;;;;;;5057998;28;20584;-46
2021/12/05 12:47:05;;;;;;;7.97;2.30;;;5.40;99.90;;;;;;5040620;28;20173;-46
2021/12/05 12:49:37;;;;;;;2.83;1.97;;;5.40;99.90;;;;;;5057900;28;20251;-46
2021/12/05 12:52:03;;;;;;;3.57;1.30;;;5.30;99.90;;;;;;5037787;28;20219;-46
2021/12/05 12:54:37;;;;;;;5.50;1.90;;;5.20;99.90;;;;;;5056798;28;20191;-47
2021/12/05 12:57:28;;;;;;;2.90;1.43;;;5.20;99.90;;;;;;5059349;28;20176;-45
2021/12/05 12:59:56;;;;;;;1.33;0.90;;;5.10;99.90;;;;;;5061042;28;20177;-47
2021/12/05 13:03:14;;;;;;;1.53;1.27;;;5.10;99.90;;;;;;5056237;28;20291;-47
2021/12/05 13:05:40;;;;;;;3.67;1.77;;;5.10;99.90;;;;;;5040578;28;20192;-47
2021/12/05 13:11:00;;;;;;;3.77;1.70;;;5.10;99.90;;;;;;5056567;28;20227;-46
2021/12/05 13:13:28;;;;;;;1.83;1.50;;;5.10;99.90;;;;;;5058419;28;20161;-45
2021/12/05 13:15:59;;;;;;;4.70;2.00;;;5.20;99.90;;;;;;5057972;28;20201;-46
2021/12/05 13:18:31;;;;;;;3.33;1.77;;;5.20;99.90;;;;;;5040053;28;20253;-47
2021/12/05 13:21:01;;;;;;;2.27;1.70;;;5.20;99.90;;;;;;5057299;28;20204;-48
2021/12/05 13:23:34;;;;;;;2.47;2.00;;;5.30;99.90;;;;;;5057934;28;20168;-46
2021/12/05 13:26:23;;;;;;;3.03;2.10;;;5.30;99.90;;;;;;5039217;28;20176;-46
2021/12/05 13:28:53;;;;;;;3.63;2.40;;;5.30;99.90;;;;;;5056350;28;20172;-47
2021/12/05 13:31:28;;;;;;;3.83;2.30;;;5.30;99.90;;;;;;5056290;28;20259;-47
2021/12/05 13:34:27;;;;;;;3.80;2.50;;;5.30;99.90;;;;;;5056245;28;20537;-46
2021/12/05 13:37:04;;;;;;;4.27;2.20;;;5.40;99.90;;;;;;5057183;28;20192;-48
2021/12/05 13:39:49;;;;;;;4.77;2.00;;;5.40;99.90;;;;;;5053848;28;20176;-48
2021/12/05 13:42:33;;;;;;;6.90;1.83;;;5.40;99.90;;;;;;5037016;28;20196;-47
2021/12/05 13:44:58;;;;;;;4.43;2.20;;;5.40;99.90;;;;;;5056755;28;20212;-46
2021/12/05 13:47:31;;;;;;;4.60;2.70;;;5.30;99.90;;;;;;5055933;28;20172;-46
2021/12/05 13:52:53;;;;;;;1.93;1.40;;;5.40;99.90;;;;;;5043886;28;20219;-47
2021/12/05 13:55:43;;;;;;;1.43;1.30;;;5.30;99.90;;;;;;5037471;28;20206;-48
2021/12/05 13:58:38;;;;;;;1.20;1.10;;;5.30;99.90;;;;;;5051667;28;20618;-48
2021/12/05 14:01:11;;;;;;;1.03;0.87;;;5.30;99.90;;;;;;5035127;28;20593;-46
2021/12/05 14:03:44;;;;;;;1.07;0.87;;;5.20;99.90;;;;;;5052697;28;20180;-47
2021/12/05 14:06:30;;;;;;;2.63;1.70;;;5.20;99.90;;;;;;5054157;28;20588;-48
2021/12/05 14:09:11;;;;;;;2.83;1.40;;;5.20;99.90;;;;;;5036791;28;20638;-47
2021/12/05 14:11:41;;;;;;;2.30;1.40;;;5.20;99.90;;;;;;5054472;28;20210;-48
2021/12/05 14:14:08;;;;;;;3.13;1.83;;;5.20;99.90;;;;;;5055351;28;20284;-47
2021/12/05 14:16:39;;;;;;;2.17;1.40;;;5.20;99.90;;;;;;5055155;28;20201;-48
2021/12/05 14:19:14;;;;;;;4.03;1.87;;;5.20;99.90;;;;;;5055068;28;20176;-46
2021/12/05 14:21:46;;;;;;;4.73;2.57;;;5.20;99.90;;;;;;5054852;28;20612;-48
2021/12/05 14:24:13;;;;;;;1.97;1.57;;;5.20;99.90;;;;;;5054976;28;20615;-48
2021/12/05 14:26:40;;;;;;;2.00;1.40;;;5.20;99.90;;;;;;5055038;28;20188;-50
2021/12/05 14:29:13;;;;;;;2.17;1.40;;;5.20;99.90;;;;;;5036833;28;20592;-48
2021/12/05 14:32:04;;;;;;;2.10;1.30;;;5.20;99.90;;;;;;5053842;28;20205;-48
2021/12/05 14:34:30;;;;;;;4.67;2.03;;;5.20;99.90;;;;;;5053267;28;20200;-48
2021/12/05 14:37:08;;;;;;;3.33;1.73;;;5.20;99.90;;;;;;5054644;28;20629;-47
2021/12/05 14:39:46;;;;;;;1.50;1.20;;;5.20;99.90;;;;;;5054483;28;20186;-47
2021/12/05 14:42:18;;;;;;;4.13;1.53;;;5.20;99.90;;;;;;5036749;28;20200;-48
2021/12/05 14:44:51;;;;;;;2.57;1.53;;;5.20;99.90;;;;;;5054590;28;20171;-46
2021/12/05 14:47:20;;;;;;;1.67;1.43;;;5.20;99.90;;;;;;5036638;28;20176;-47
2021/12/05 14:49:51;;;;;;;2.43;1.30;;;5.10;99.90;;;;;;5054504;28;20228;-48
2021/12/05 14:52:23;;;;;;;3.00;1.00;;;5.20;99.90;;;;;;5036468;28;20679;-48
2021/12/05 14:54:49;;;;;;;3.40;1.20;;;5.20;99.90;;;;;;5054529;28;20266;-48
2021/12/05 14:57:26;;;;;;;1.57;1.13;;;5.10;99.90;;;;;;5054510;28;20173;-48
2021/12/05 15:00:04;;;;;;;1.33;1.03;;;5.10;99.90;;;;;;5054382;28;20177;-46
2021/12/05 15:02:29;;;;;;;1.30;1.10;;;5.10;99.90;;;;;;5054136;28;20192;-47
2021/12/05 15:04:55;;;;;;;1.73;1.50;;;5.10;99.90;;;;;;5054148;28;20201;-46
2021/12/05 15:07:24;;;;;;;1.80;1.30;;;5.10;99.90;;;;;;5054322;28;20178;-46
2021/12/05 15:09:56;;;;;;;2.67;1.37;;;5.00;99.90;;;;;;5053900;28;20659;-48
2021/12/05 15:12:29;;;;;;;4.30;1.20;;;5.00;99.90;;;;;;5054130;28;20197;-48
2021/12/05 15:14:58;;;;;;;1.00;0.90;;;5.00;99.90;;;;;;5054074;28;20203;-47
2021/12/05 15:17:30;;;;;;;1.40;1.30;;;5.00;99.90;;;;;;5054239;28;20181;-48
2021/12/05 15:20:09;;;;;;;1.70;1.50;;;4.90;99.90;;;;;;5053997;28;20181;-47
2021/12/05 15:22:36;;;;;;;2.60;1.30;;;4.90;99.90;;;;;;5053602;28;20231;-46
2021/12/05 15:25:05;;;;;;;1.30;1.17;;;4.90;99.90;;;;;;5035717;28;20641;-47
2021/12/05 15:27:33;;;;;;;1.20;1.10;;;4.80;99.90;;;;;;5053689;28;20559;-46
2021/12/05 15:30:05;;;;;;;3.27;1.47;;;4.80;99.90;;;;;;5054005;28;20187;-47
2021/12/05 15:32:32;;;;;;;1.43;1.10;;;4.80;99.90;;;;;;5035785;28;20249;-46
2021/12/05 15:35:01;;;;;;;2.97;1.13;;;4.70;99.90;;;;;;5053852;28;20264;-45
2021/12/05 15:37:27;;;;;;;1.10;1.00;;;4.70;99.90;;;;;;5053620;28;20180;-48
2021/12/05 15:39:55;;;;;;;2.37;1.30;;;4.70;99.90;;;;;;5053703;28;20243;-48
2021/12/05 15:42:26;;;;;;;3.07;1.30;;;4.60;99.90;;;;;;5053774;28;20215;-47
2021/12/05 15:44:55;;;;;;;2.20;1.20;;;4.60;99.90;;;;;;5053444;28;20264;-47
2021/12/05 15:47:23;;;;;;;1.53;1.00;;;4.60;99.90;;;;;;5053501;28;20172;-46
2021/12/05 15:49:50;;;;;;;2.10;1.20;;;4.60;99.90;;;;;;5053506;28;20196;-47
2021/12/05 15:52:19;;;;;;;2.60;1.30;;;4.50;99.90;;;;;;5053416;28;20257;-47
2021/12/05 15:54:45;;;;;;;2.03;1.20;;;4.50;99.90;;;;;;5053516;28;20247;-48
2021/12/05 15:57:16;;;;;;;2.33;1.27;;;4.50;99.90;;;;;;5053644;28;20251;-47
2021/12/05 15:59:46;;;;;;;1.70;1.40;;;4.40;99.90;;;;;;5053553;28;20166;-47
2021/12/05 16:02:17;;;;;;;2.83;1.50;;;4.40;99.90;;;;;;5053200;28;20188;-48
2021/12/05 16:04:43;;;;;;;3.97;2.70;;;4.40;99.90;;;;;;5053025;28;20169;-49
2021/12/05 16:07:10;;;;;;;6.63;3.67;;;4.30;99.90;;;;;;5053192;28;20179;-49
2021/12/05 16:09:38;;;;;;;4.13;2.87;;;4.30;99.90;;;;;;5035137;28;20300;-46
2021/12/05 16:12:17;;;;;;;3.83;2.30;;;4.20;99.90;;;;;;5054092;28;20291;-48
2021/12/05 16:14:47;;;;;;;4.10;1.80;;;4.20;99.90;;;;;;5057086;28;20557;-48
2021/12/05 16:17:18;;;;;;;3.13;2.03;;;4.20;99.90;;;;;;5057220;28;20172;-48
2021/12/05 16:20:09;;;;;;;3.03;1.73;;;4.20;99.90;;;;;;5057362;28;20198;-47
2021/12/05 16:22:58;;;;;;;2.20;1.53;;;4.10;99.90;;;;;;5039201;28;20192;-48
2021/12/05 16:25:25;;;;;;;1.40;1.30;;;4.20;99.90;;;;;;5057332;28;20643;-48
2021/12/05 16:28:01;;;;;;;1.33;1.20;;;4.10;99.90;;;;;;5039149;28;20177;-47
2021/12/05 16:30:32;;;;;;;2.23;1.77;;;4.10;99.90;;;;;;5057449;28;20172;-47
2021/12/05 16:33:00;;;;;;;3.87;2.50;;;4.10;99.90;;;;;;5056854;28;20200;-47
2021/12/05 16:35:39;;;;;;;4.07;2.33;;;4.10;99.90;;;;;;5056626;28;20226;-47
2021/12/05 16:38:37;;;;;;;11.40;6.67;;;4.10;99.90;;;;;;5057481;28;20233;-49
2021/12/05 16:41:16;;;;;;;11.40;6.40;;;4.00;99.90;;;;;;5056920;28;20192;-50
2021/12/05 16:43:57;;;;;;;9.57;5.17;;;4.00;99.90;;;;;;5057512;28;20536;-48
2021/12/05 16:46:50;;;;;;;3.90;3.07;;;4.00;99.90;;;;;;5057594;28;20175;-47
2021/12/05 16:49:26;;;;;;;4.97;2.80;;;4.00;99.90;;;;;;5057450;28;20203;-48
2021/12/05 16:52:05;;;;;;;2.70;2.23;;;4.00;99.90;;;;;;5057840;28;20287;-47
2021/12/05 16:54:36;;;;;;;5.03;4.20;;;4.00;99.90;;;;;;5059993;28;20160;-46
2021/12/05 16:57:10;;;;;;;7.77;5.60;;;4.00;99.90;;;;;;5059007;28;20618;-49
2021/12/05 16:59:42;;;;;;;5.20;4.23;;;4.00;99.90;;;;;;5057822;28;20175;-48
2021/12/05 17:02:27;;;;;;;4.13;3.60;;;4.00;99.90;;;;;;5056660;28;20192;-48
2021/12/05 17:05:03;;;;;;;3.70;3.30;;;4.00;99.90;;;;;;5060980;28;20169;-47
2021/12/05 17:07:42;;;;;;;3.67;3.20;;;4.00;99.90;;;;;;5061470;28;20243;-46
2021/12/05 17:10:29;;;;;;;6.47;3.40;;;4.00;99.90;;;;;;5059595;28;20164;-47
2021/12/05 17:13:06;;;;;;;2.90;2.60;;;4.00;99.90;;;;;;5060004;28;20232;-47
2021/12/05 17:15:32;;;;;;;4.67;3.90;;;4.00;99.90;;;;;;5056362;28;20279;-47
2021/12/05 17:18:03;;;;;;;4.67;3.97;;;4.00;99.90;;;;;;5056346;28;20172;-46
2021/12/05 17:20:34;;;;;;;7.17;5.10;;;4.00;99.90;;;;;;5038750;28;20256;-47
2021/12/05 17:23:10;;;;;;;5.60;4.93;;;4.00;99.90;;;;;;5039426;28;20199;-46
2021/12/05 17:25:45;;;;;;;9.67;6.23;;;3.90;99.90;;;;;;5057964;28;20236;-46
2021/12/05 17:28:18;;;;;;;12.03;8.63;;;4.00;99.90;;;;;;5058944;28;20167;-47
2021/12/05 17:30:52;;;;;;;13.73;8.77;;;4.00;99.90;;;;;;5058407;28;20168;-46
2021/12/05 17:33:46;;;;;;;7.80;5.83;;;4.00;99.90;;;;;;5057671;28;20172;-46
2021/12/05 17:36:34;;;;;;;6.87;4.63;;;4.00;99.90;;;;;;5053369;28;20216;-47
2021/12/05 17:39:10;;;;;;;7.97;6.43;;;4.00;99.90;;;;;;5055991;28;20232;-48
2021/12/05 17:41:36;;;;;;;9.83;7.60;;;4.00;99.90;;;;;;5055930;28;20196;-48
2021/12/05 17:44:03;;;;;;;9.10;6.70;;;4.00;99.90;;;;;;5056559;28;20179;-47
2021/12/05 17:46:33;;;;;;;6.17;4.43;;;4.00;99.90;;;;;;5059380;28;20673;-47
2021/12/05 17:49:00;;;;;;;3.80;3.30;;;4.00;99.90;;;;;;5060148;28;20196;-47
2021/12/05 17:51:34;;;;;;;4.13;3.70;;;4.00;99.90;;;;;;5058337;28;20616;-47
2021/12/05 17:54:00;;;;;;;5.30;3.60;;;4.00;99.90;;;;;;5040735;28;20191;-47
2021/12/05 17:56:38;;;;;;;5.93;3.80;;;4.00;99.90;;;;;;5057450;28;20203;-47
2021/12/05 17:59:47;;;;;;;6.07;4.27;;;4.00;99.90;;;;;;5043534;28;20186;-47
2021/12/05 18:05:01;;;;;;;11.10;7.07;;;4.00;99.90;;;;;;5058174;28;20187;-47
2021/12/05 18:07:27;;;;;;;10.60;7.00;;;4.00;99.90;;;;;;5061049;28;20184;-49
2021/12/05 18:09:54;;;;;;;9.53;6.90;;;4.00;99.90;;;;;;5058809;28;20291;-47
2021/12/05 18:12:22;;;;;;;8.83;6.00;;;4.00;99.90;;;;;;5060107;28;20254;-48
2021/12/05 18:14:50;;;;;;;7.50;5.03;;;4.00;99.90;;;;;;5037769;28;20212;-47
2021/12/05 18:17:15;;;;;;;5.63;3.70;;;3.90;99.90;;;;;;5055376;28;20162;-48
2021/12/05 18:19:43;;;;;;;3.73;3.23;;;4.00;99.90;;;;;;5055242;28;20184;-46